NCAR-RAP Real-Time Weather Data

Output produced by METARs form (19 June 2019  11:31 UTC)
found at http://weather.rap.ucar.edu/surface/
 
KJFK 191051Z 09005KT 7SM OVC006 19/19 A2989 RMK AO2 RAB0954E33 SLP120 VCSH E P0001 T01940194 $
KJFK 191022Z 07005KT 7SM -RA OVC005 19/19 A2988 RMK AO2 RAB0954 P0001 T01890189 $
KJFK 190951Z 05003KT 4SM BR OVC004 19/19 A2988 RMK AO2 RAB32E42 SLP119 P0000 T01890189 $
KJFK 190945Z 05003KT 4SM BR OVC004 19/19 A2988 RMK AO2 RAB32E42 P0000 $
KJFK 190851Z 06003KT 1/2SM R04R/P6000FT BR BKN004 OVC110 19/19 A2987 RMK AO2 SFC VIS 6 SLP115 T01890189 55004 $
KJFK 190841Z 03005KT 1/2SM R04R/P6000FT BR BKN004 OVC110 19/19 A2987 RMK AO2 SFC VIS 5 T01890189 $
KJFK 190751Z 02006KT 7SM OVC005 19/19 A2987 RMK AO2 SLP114 T01940194 $
KJFK 190707Z 03003KT 7SM OVC005 19/19 A2988 RMK AO2 T01890189 $
KJFK 190651Z 03003KT 6SM BR OVC004 19/19 A2988 RMK AO2 SLP117 T01890189 $
KJFK 190551Z 04006KT 5SM BR OVC004 19/19 A2989 RMK AO2 SLP120 60002 T01890189 10206 20189 58002 $
KJFK 190509Z 01005KT 5SM BR OVC004 19/19 A2989 RMK AO2 T01940194 $
KJFK 190451Z 02005KT 3SM BR OVC005 19/19 A2989 RMK AO2 SFC VIS 6 SLP122 T01940194 402440189 $
KJFK 190408Z 01004KT 3SM BR OVC005 19/19 A2990 RMK AO2 SFC VIS 6 T01940194 $
KJFK 190351Z 01005KT 1/2SM R04R/P6000FT BR OVC004 19/19 A2990 RMK AO2 SFC VIS 3 SLP123 T01940194 $
KJFK 190251Z 05005KT 1/2SM R04R/6000VP6000FT BR OVC003 19/19 A2989 RMK AO2 SFC VIS 2 RAB11E38 SLP122 P0001 60002 T01940194 53010 $
KJFK 190218Z 36006KT 1/2SM R04R/P6000FT -RA BR OVC004 20/20 A2989 RMK AO2 SFC VIS 2 1/2 RAB11 P0000 T02000200 $
KJFK 190201Z 32005KT 6SM BR OVC004 21/21 A2988 RMK AO2 T02060206 $
KJFK 190151Z 13003KT 6SM BR OVC006 21/21 A2988 RMK AO2 SLP118 T02060206 $
KJFK 190051Z 00000KT 10SM OVC006 21/21 A2986 RMK AO2 RAE43 SLP113 P0001 T02060206 $
KJFK 190038Z 06003KT 10SM -RA OVC006 20/20 A2986 RMK AO2 P0001 T02000200 $
KJFK 182351Z VRB03KT 7SM RA BKN004 BKN075 OVC110 20/20 A2986 RMK AO2 SLP112 P0011 60128 T02000200 10217 20200 55002 $
KJFK 182251Z 09005KT 3SM R04R/6000VP6000FT +RA BR BKN004 BKN037 OVC055 21/21 A2986 RMK AO2 LTG DSNT SE AND S RAB2158 SLP110 BKN004 V SCT P0019 T02060206 $
KJFK 182151Z 08005KT 6SM BR OVC004 21/21 A2984 RMK AO2 LTG DSNT S AND SW RAE20 SLP106 P0003 T02110211 $
KJFK 182128Z 07005KT 7SM OVC004 21/21 A2985 RMK AO2 RAE20 P0003 T02110211 $
KJFK 182051Z 13007KT 7SM -RA SCT004 BKN035 OVC100 21/21 A2987 RMK AO2 RAE32B51 SLP113 P0005 60095 T02110211 57005 $
KJFK 182047Z 14009KT 7SM SCT004 BKN035 OVC100 21/21 A2987 RMK AO2 RAE32 P0005 $
KJFK 181951Z 13007KT 2SM R04R/1600V4000FT +RA BR FEW004 BKN025CB OVC042 21/21 A2988 RMK AO2 SFC VIS 3 TSE08B35E50 SLP119 CB SW MOV E P0062 T02060206
KJFK 181947Z 12008KT 2SM R04R/1600V4500FT +TSRA BR FEW004 BKN025CB OVC042 20/20 A2988 RMK AO2 SFC VIS 3 LTG DSNT S TSE08B35 CB SW MOV E P0047
KJFK 181941Z 14006KT 2SM R04R/2400VP6000FT +TSRA BR FEW004 BKN035 OVC042 20/20 A2988 RMK AO2 SFC VIS 4 LTG DSNT S TSE08B35 CIG 017 W P0032 T02000200
KJFK 181929Z 11010KT 2SM R04R/3500VP6000FT +RA BR FEW004 BKN034 OVC045 20/20 A2988 RMK AO2 SFC VIS 4 LTG DSNT S AND SW TSE08 P0026 T02000200
KJFK 181914Z 12008KT 2SM R04R/4000VP6000FT VCTS +RA BR SCT004 SCT037 OVC047 20/20 A2989 RMK AO2 SFC VIS 4 LTG DSNT S AND SW TSE08 P0009 T02000200
KJFK 181851Z 12010KT 2SM RA BR SCT008 BKN039 OVC055 21/21 A2990 RMK AO2 SFC VIS 5 LTG DSNT SW RAB00 SLP123 P0028 T02060206
KJFK 181848Z 12011KT 2SM RA BR SCT008 BKN039 OVC055 21/21 A2990 RMK AO2 SFC VIS 5 LTG DSNT SW RAB00 P0027
KJFK 181821Z 11004KT 2SM R04R/5000VP6000FT +RA BR SCT008 BKN026CB OVC055 21/21 A2990 RMK AO2 SFC VIS 2 1/2 RAB00 CB OHD MOV E P0005 T02110211
KJFK 181751Z 12008KT 8SM FEW008 SCT027 BKN050 OVC130 22/21 A2990 RMK AO2 RAB18E39 SLP126 P0000 60003 T02170211 10244 20206 58013
KJFK 181651Z 13009KT 9SM FEW008 SCT017CB BKN055 BKN150 23/22 A2992 RMK AO2 SLP130 CB NW-NE MOV E VCSH NW-NE T02280217
KJFK 181551Z 12008KT 8SM FEW006 SCT020 BKN090 BKN150 BKN200 24/22 A2993 RMK AO2 RAB01E11 SLP136 P0000 T02390222
KJFK 181451Z 11005KT 6SM BR FEW006 BKN065 BKN110 OVC150 22/22 A2994 RMK AO2 RAB00E10 SLP139 P0000 60003 T02170217 56014